Time;durP1;ratioP1;P1;durP2;ratioP2;P2;SDS_P1;SDS_P2;PMS_P1;PMS_P2;Temp;Humidity;BMP_temperature;BMP_pressure;BME280_temperature;BME280_humidity;BME280_pressure;Samples;Min_cycle;Max_cycle;Signal;HPM_P1;HPM_P2
2021/07/31 00:02:23;;;;;;;6.43;5.82;;;;;;;;;;5074040;28;20672;-66
2021/07/31 00:04:50;;;;;;;11.20;5.97;;;;;;;;;;5092364;28;20024;-66
2021/07/31 00:07:16;;;;;;;6.03;5.43;;;;;;;;;;5092392;28;20476;-66
2021/07/31 00:09:42;;;;;;;5.43;4.97;;;;;;;;;;5092175;28;20043;-66
2021/07/31 00:12:08;;;;;;;5.82;5.32;;;;;;;;;;5073960;28;20510;-65
2021/07/31 00:14:36;;;;;;;6.07;5.38;;;;;;;;;;5091975;28;20026;-66
2021/07/31 00:17:06;;;;;;;5.95;5.35;;;;;;;;;;5073622;28;20156;-65
2021/07/31 00:19:31;;;;;;;6.88;5.72;;;;;;;;;;5092206;28;20093;-64
2021/07/31 00:21:57;;;;;;;6.95;5.72;;;;;;;;;;5091906;28;20028;-65
2021/07/31 00:24:22;;;;;;;8.00;5.47;;;;;;;;;;5090876;28;20024;-65
2021/07/31 00:26:47;;;;;;;5.78;5.25;;;;;;;;;;5091966;28;20058;-65
2021/07/31 00:29:13;;;;;;;6.45;4.95;;;;;;;;;;5091733;28;20090;-64
2021/07/31 00:31:38;;;;;;;6.25;5.65;;;;;;;;;;5091879;28;20032;-65
2021/07/31 00:34:04;;;;;;;7.97;6.25;;;;;;;;;;5091855;28;20039;-64
2021/07/31 00:36:29;;;;;;;7.25;5.82;;;;;;;;;;5091849;28;20495;-64
2021/07/31 00:38:55;;;;;;;6.68;5.63;;;;;;;;;;5091458;28;20041;-66
2021/07/31 00:41:20;;;;;;;5.35;4.85;;;;;;;;;;5091989;28;20047;-66
2021/07/31 00:43:46;;;;;;;6.30;5.68;;;;;;;;;;5073487;28;20036;-65
2021/07/31 00:46:11;;;;;;;5.57;5.07;;;;;;;;;;5091443;28;20035;-66
2021/07/31 00:48:37;;;;;;;6.40;5.82;;;;;;;;;;5091729;28;20125;-66
2021/07/31 00:51:03;;;;;;;6.22;5.65;;;;;;;;;;5091317;28;20078;-65
2021/07/31 00:53:29;;;;;;;6.63;5.25;;;;;;;;;;5091231;28;20849;-67
2021/07/31 00:55:57;;;;;;;7.45;5.68;;;;;;;;;;5073157;28;20044;-66
2021/07/31 00:58:23;;;;;;;7.15;5.55;;;;;;;;;;5073130;28;20039;-66
2021/07/31 01:00:54;;;;;;;7.30;6.13;;;;;;;;;;5089718;28;20032;-66
2021/07/31 01:03:20;;;;;;;7.22;5.50;;;;;;;;;;5091161;28;20130;-67
2021/07/31 01:05:46;;;;;;;5.28;4.88;;;;;;;;;;5091068;28;20094;-67
2021/07/31 01:08:11;;;;;;;6.10;5.50;;;;;;;;;;5072652;28;20484;-67
2021/07/31 01:10:37;;;;;;;5.55;5.05;;;;;;;;;;5072408;28;20052;-67
2021/07/31 01:13:03;;;;;;;6.10;5.50;;;;;;;;;;5090899;28;20036;-67
2021/07/31 01:15:30;;;;;;;6.20;5.38;;;;;;;;;;5072450;28;20136;-67
2021/07/31 01:17:55;;;;;;;6.43;5.70;;;;;;;;;;5089476;28;20123;-67
2021/07/31 01:20:23;;;;;;;6.30;5.57;;;;;;;;;;5090613;28;20052;-67
2021/07/31 01:22:55;;;;;;;7.40;6.38;;;;;;;;;;5072347;28;20089;-66
2021/07/31 01:25:20;;;;;;;6.57;6.07;;;;;;;;;;5091041;28;20032;-67
2021/07/31 01:27:46;;;;;;;8.43;6.43;;;;;;;;;;5090792;28;20111;-67
2021/07/31 01:30:12;;;;;;;6.05;5.45;;;;;;;;;;5090694;28;20109;-66
2021/07/31 01:32:38;;;;;;;5.72;5.25;;;;;;;;;;5072468;28;20646;-66
2021/07/31 01:35:04;;;;;;;6.57;5.38;;;;;;;;;;5071991;28;20051;-66
2021/07/31 01:37:32;;;;;;;5.72;5.22;;;;;;;;;;5088843;28;20032;-66
2021/07/31 01:39:59;;;;;;;6.32;5.72;;;;;;;;;;5068079;28;20123;-66
2021/07/31 01:42:26;;;;;;;8.20;5.63;;;;;;;;;;5068742;28;20051;-66
2021/07/31 01:44:52;;;;;;;5.88;5.38;;;;;;;;;;5068644;28;20036;-66
2021/07/31 01:47:18;;;;;;;6.32;5.80;;;;;;;;;;5070257;28;20110;-66
2021/07/31 01:49:43;;;;;;;7.00;5.75;;;;;;;;;;5068637;28;20047;-63
2021/07/31 01:52:09;;;;;;;6.32;5.72;;;;;;;;;;5070106;28;20028;-66
2021/07/31 01:54:36;;;;;;;6.15;5.65;;;;;;;;;;5068715;28;20117;-65
2021/07/31 01:57:02;;;;;;;6.75;6.10;;;;;;;;;;5070158;28;20028;-65
2021/07/31 01:59:47;;;;;;;5.70;5.15;;;;;;;;;;5068735;28;20079;-65
2021/07/31 02:02:13;;;;;;;5.82;5.30;;;;;;;;;;5070162;28;20060;-66
2021/07/31 02:04:42;;;;;;;5.95;5.25;;;;;;;;;;5068725;28;20028;-65
2021/07/31 02:07:25;;;;;;;6.40;5.40;;;;;;;;;;5068585;28;20090;-67
2021/07/31 02:09:52;;;;;;;6.07;5.47;;;;;;;;;;5068134;28;20041;-67
2021/07/31 02:12:17;;;;;;;5.80;5.35;;;;;;;;;;5068281;28;20419;-66
2021/07/31 02:14:45;;;;;;;6.63;5.03;;;;;;;;;;5068424;28;20102;-65
2021/07/31 02:17:12;;;;;;;6.03;5.40;;;;;;;;;;5068522;28;20028;-65
2021/07/31 02:19:42;;;;;;;5.40;4.97;;;;;;;;;;5068333;28;20614;-65
2021/07/31 02:22:16;;;;;;;6.70;5.35;;;;;;;;;;5068233;28;20066;-65
2021/07/31 02:24:51;;;;;;;7.88;5.93;;;;;;;;;;5069707;28;20392;-65
2021/07/31 02:27:35;;;;;;;7.15;5.55;;;;;;;;;;5070104;28;20114;-65
2021/07/31 02:30:06;;;;;;;6.20;5.60;;;;;;;;;;5068318;28;20076;-65
2021/07/31 02:32:32;;;;;;;6.55;5.97;;;;;;;;;;5069766;28;20044;-65
2021/07/31 02:34:58;;;;;;;7.47;5.85;;;;;;;;;;5069730;28;20028;-65
2021/07/31 02:37:26;;;;;;;6.78;5.70;;;;;;;;;;5068101;28;20044;-65
2021/07/31 02:39:55;;;;;;;6.70;5.63;;;;;;;;;;5067875;28;20029;-65
2021/07/31 02:42:21;;;;;;;6.68;5.60;;;;;;;;;;5068258;28;20049;-65
2021/07/31 02:44:47;;;;;;;6.07;5.57;;;;;;;;;;5068684;28;20438;-63
2021/07/31 02:47:18;;;;;;;6.10;5.43;;;;;;;;;;5071351;28;20040;-63
2021/07/31 02:49:47;;;;;;;6.20;5.60;;;;;;;;;;5073750;28;20098;-63
2021/07/31 02:52:13;;;;;;;11.07;6.13;;;;;;;;;;5073503;28;20033;-63
2021/07/31 02:54:46;;;;;;;5.93;5.40;;;;;;;;;;5056586;28;20125;-63
2021/07/31 02:57:11;;;;;;;5.97;5.38;;;;;;;;;;5073317;28;20044;-63
2021/07/31 02:59:38;;;;;;;6.32;5.60;;;;;;;;;;5071891;28;20033;-65
2021/07/31 03:02:06;;;;;;;6.25;5.65;;;;;;;;;;5072239;28;20048;-65
2021/07/31 03:04:34;;;;;;;6.15;5.13;;;;;;;;;;5072113;28;20036;-65
2021/07/31 03:07:21;;;;;;;6.00;4.82;;;;;;;;;;5072652;28;20477;-65
2021/07/31 03:09:51;;;;;;;6.00;5.45;;;;;;;;;;5071804;28;20040;-65
2021/07/31 03:12:18;;;;;;;7.00;5.57;;;;;;;;;;5072959;28;20068;-67
2021/07/31 03:14:47;;;;;;;6.10;5.57;;;;;;;;;;5071579;28;20044;-67
2021/07/31 03:17:16;;;;;;;5.72;5.15;;;;;;;;;;5071740;28;20045;-64
2021/07/31 03:19:44;;;;;;;9.18;5.38;;;;;;;;;;5071500;28;20501;-63
2021/07/31 03:22:09;;;;;;;7.57;5.30;;;;;;;;;;5071648;28;20086;-63
2021/07/31 03:24:43;;;;;;;5.88;5.25;;;;;;;;;;5088532;28;20086;-63
2021/07/31 03:27:08;;;;;;;6.68;5.57;;;;;;;;;;5071062;28;20662;-63
2021/07/31 03:29:56;;;;;;;6.53;5.57;;;;;;;;;;5072715;28;20056;-65
2021/07/31 03:32:24;;;;;;;5.40;4.93;;;;;;;;;;5071155;28;20044;-67
2021/07/31 03:34:49;;;;;;;5.80;5.30;;;;;;;;;;5072773;28;20035;-65
2021/07/31 03:37:16;;;;;;;5.68;4.85;;;;;;;;;;5071115;28;20040;-66
2021/07/31 03:39:42;;;;;;;6.78;5.10;;;;;;;;;;5079256;28;20121;-66
2021/07/31 03:42:07;;;;;;;6.63;5.55;;;;;;;;;;5093044;28;20044;-64
2021/07/31 03:44:34;;;;;;;9.00;5.43;;;;;;;;;;5074667;28;20719;-64
2021/07/31 03:47:00;;;;;;;7.68;5.55;;;;;;;;;;5092910;28;20119;-65
2021/07/31 03:49:25;;;;;;;5.53;5.05;;;;;;;;;;5057650;28;20121;-64
2021/07/31 03:51:55;;;;;;;5.97;5.43;;;;;;;;;;5090966;28;20064;-65
2021/07/31 03:54:21;;;;;;;6.03;5.47;;;;;;;;;;5091428;28;20043;-65
2021/07/31 03:56:47;;;;;;;5.82;5.25;;;;;;;;;;5092564;28;20779;-66
2021/07/31 03:59:40;;;;;;;6.60;5.05;;;;;;;;;;5074147;28;20028;-65
2021/07/31 04:02:06;;;;;;;7.45;5.15;;;;;;;;;;5090830;28;20032;-65
2021/07/31 04:04:35;;;;;;;5.18;4.78;;;;;;;;;;5073916;28;20043;-65
2021/07/31 04:07:01;;;;;;;6.90;4.97;;;;;;;;;;5074064;28;20043;-65
2021/07/31 04:09:45;;;;;;;6.30;5.30;;;;;;;;;;5092576;28;20081;-65
2021/07/31 04:12:30;;;;;;;7.13;6.05;;;;;;;;;;5092641;28;20407;-65
2021/07/31 04:15:15;;;;;;;7.88;5.95;;;;;;;;;;5092553;28;20600;-65
2021/07/31 04:17:42;;;;;;;8.50;5.68;;;;;;;;;;5092173;28;20040;-65
2021/07/31 04:20:08;;;;;;;9.65;6.03;;;;;;;;;;5073902;28;20028;-65
2021/07/31 04:22:34;;;;;;;6.43;5.80;;;;;;;;;;5073706;28;20048;-65
2021/07/31 04:25:00;;;;;;;6.47;5.72;;;;;;;;;;5092050;28;20036;-67
2021/07/31 04:27:27;;;;;;;5.60;5.07;;;;;;;;;;5092238;28;20046;-64
2021/07/31 04:29:52;;;;;;;7.40;5.65;;;;;;;;;;5092455;28;20107;-63
2021/07/31 04:32:18;;;;;;;7.35;5.30;;;;;;;;;;5074254;28;20424;-62
2021/07/31 04:34:43;;;;;;;5.88;5.38;;;;;;;;;;5092730;28;20597;-63
2021/07/31 04:37:09;;;;;;;11.77;6.03;;;;;;;;;;5092386;28;20046;-63
2021/07/31 04:39:37;;;;;;;5.45;4.97;;;;;;;;;;5091507;28;20412;-63
2021/07/31 04:42:03;;;;;;;6.93;5.43;;;;;;;;;;5092781;28;20043;-63
2021/07/31 04:44:28;;;;;;;6.20;5.60;;;;;;;;;;5092314;28;20138;-63
2021/07/31 04:46:54;;;;;;;5.43;4.78;;;;;;;;;;5091548;28;20040;-65
2021/07/31 04:49:19;;;;;;;5.68;5.18;;;;;;;;;;5074097;28;20028;-65
2021/07/31 04:51:45;;;;;;;6.95;5.50;;;;;;;;;;5091904;28;20036;-65
2021/07/31 04:54:11;;;;;;;8.98;5.07;;;;;;;;;;5092359;28;20035;-64
2021/07/31 04:56:36;;;;;;;16.17;6.60;;;;;;;;;;5092211;28;20036;-64
2021/07/31 04:59:02;;;;;;;10.43;5.50;;;;;;;;;;5092034;28;20028;-64
2021/07/31 05:01:28;;;;;;;12.52;6.43;;;;;;;;;;5073701;28;20035;-64
2021/07/31 05:03:53;;;;;;;10.38;5.90;;;;;;;;;;5091968;28;20471;-64
2021/07/31 05:06:21;;;;;;;6.07;5.45;;;;;;;;;;5073687;28;20043;-64
2021/07/31 05:08:46;;;;;;;6.72;5.32;;;;;;;;;;5091093;28;20047;-64
2021/07/31 05:11:12;;;;;;;6.00;5.40;;;;;;;;;;5091854;28;20480;-64
2021/07/31 05:13:37;;;;;;;13.38;6.03;;;;;;;;;;5091522;28;20035;-64
2021/07/31 05:16:04;;;;;;;6.40;5.68;;;;;;;;;;5091426;28;20085;-64
2021/07/31 05:18:29;;;;;;;6.22;5.55;;;;;;;;;;5090919;28;20116;-64
2021/07/31 05:20:57;;;;;;;6.03;5.43;;;;;;;;;;5091135;28;20589;-64
2021/07/31 05:23:22;;;;;;;7.32;5.43;;;;;;;;;;5090825;28;20372;-63
2021/07/31 05:25:48;;;;;;;6.10;5.57;;;;;;;;;;5090803;28;20032;-63
2021/07/31 05:28:13;;;;;;;5.82;5.32;;;;;;;;;;5090920;28;20044;-64
2021/07/31 05:30:40;;;;;;;8.43;6.20;;;;;;;;;;5090795;28;20028;-64
2021/07/31 05:36:40;;;;;;;6.63;5.60;;;;;;;;;;5094484;28;20090;-64
2021/07/31 05:46:18;;;;;;;6.65;5.97;;;;;;;;;;5094304;28;20039;-64
2021/07/31 05:52:20;;;;;;;8.35;6.70;;;;;;;;;;5094227;28;20404;-64
2021/07/31 05:58:21;;;;;;;9.07;6.07;;;;;;;;;;5093840;28;20569;-64
2021/07/31 06:04:22;;;;;;;8.02;6.15;;;;;;;;;;5094193;28;20367;-63
2021/07/31 06:10:23;;;;;;;9.70;6.07;;;;;;;;;;5093757;28;20583;-64
2021/07/31 06:16:30;;;;;;;6.40;5.80;;;;;;;;;;5092996;28;20084;-64
2021/07/31 06:19:02;;;;;;;7.38;6.45;;;;;;;;;;5054054;28;20491;-64
2021/07/31 06:21:36;;;;;;;7.68;6.72;;;;;;;;;;5071833;28;20036;-64
2021/07/31 06:24:11;;;;;;;10.20;6.85;;;;;;;;;;5066978;28;20050;-64
2021/07/31 06:26:36;;;;;;;8.50;6.18;;;;;;;;;;5093046;28;20032;-63
2021/07/31 06:29:02;;;;;;;8.15;6.63;;;;;;;;;;5093959;28;20028;-64
2021/07/31 06:31:27;;;;;;;7.50;6.68;;;;;;;;;;5094118;28;20040;-64
2021/07/31 06:33:53;;;;;;;9.32;6.38;;;;;;;;;;5094136;28;20042;-64
2021/07/31 06:36:19;;;;;;;7.10;6.40;;;;;;;;;;5093978;28;20123;-64
2021/07/31 06:38:45;;;;;;;8.43;6.78;;;;;;;;;;5093733;28;20700;-64
2021/07/31 06:41:11;;;;;;;9.30;6.45;;;;;;;;;;5093553;28;20040;-64
2021/07/31 06:43:38;;;;;;;7.07;6.38;;;;;;;;;;5093832;28;20048;-64
2021/07/31 06:46:10;;;;;;;8.63;5.72;;;;;;;;;;5093224;28;20071;-63
2021/07/31 06:48:36;;;;;;;7.68;6.43;;;;;;;;;;5092666;28;20040;-64
2021/07/31 06:51:01;;;;;;;10.15;7.13;;;;;;;;;;5093184;28;20032;-64
2021/07/31 06:53:27;;;;;;;6.55;5.85;;;;;;;;;;5093226;28;20047;-64
2021/07/31 06:55:52;;;;;;;8.18;6.60;;;;;;;;;;5093366;28;20024;-64
2021/07/31 06:58:18;;;;;;;6.93;6.22;;;;;;;;;;5092444;28;20132;-63
2021/07/31 07:00:43;;;;;;;8.23;6.78;;;;;;;;;;5092682;28;20032;-64
2021/07/31 07:03:13;;;;;;;7.55;6.47;;;;;;;;;;5092391;28;20032;-63
2021/07/31 07:09:14;;;;;;;9.45;6.63;;;;;;;;;;5097213;28;20035;-64
2021/07/31 07:15:15;;;;;;;8.77;6.47;;;;;;;;;;5097153;28;20146;-64
2021/07/31 07:21:16;;;;;;;7.45;6.20;;;;;;;;;;5097034;28;20178;-65
2021/07/31 07:27:17;;;;;;;8.43;6.38;;;;;;;;;;5096933;28;20047;-64
2021/07/31 07:33:17;;;;;;;7.03;6.13;;;;;;;;;;5096310;28;20178;-64
2021/07/31 07:39:18;;;;;;;7.70;5.22;;;;;;;;;;5096479;28;20490;-64
2021/07/31 07:59:14;;;;;;;6.32;5.68;;;;;;;;;;5094415;28;20047;-64
2021/07/31 08:01:40;;;;;;;5.88;5.25;;;;;;;;;;5092485;28;20044;-64
2021/07/31 08:04:05;;;;;;;6.47;5.60;;;;;;;;;;5092202;28;20028;-64
2021/07/31 08:06:31;;;;;;;6.15;5.10;;;;;;;;;;5092308;28;20032;-64
2021/07/31 08:08:56;;;;;;;5.95;5.18;;;;;;;;;;5092427;28;20048;-64
2021/07/31 08:11:22;;;;;;;7.78;5.45;;;;;;;;;;5092203;28;20039;-64
2021/07/31 08:13:47;;;;;;;5.57;4.97;;;;;;;;;;5092123;28;20039;-64
2021/07/31 08:16:13;;;;;;;5.82;5.22;;;;;;;;;;5092175;28;20072;-64
2021/07/31 08:18:39;;;;;;;7.20;5.30;;;;;;;;;;5091829;28;20043;-64
2021/07/31 08:21:06;;;;;;;7.00;5.47;;;;;;;;;;5092148;28;20040;-63
2021/07/31 08:23:31;;;;;;;7.00;5.50;;;;;;;;;;5091734;28;20024;-64
2021/07/31 08:25:57;;;;;;;7.50;5.60;;;;;;;;;;5091834;28;20040;-64
2021/07/31 08:28:22;;;;;;;6.93;3.67;;;;;;;;;;5091990;28;20395;-64
2021/07/31 08:30:48;;;;;;;7.18;5.32;;;;;;;;;;5091651;28;20044;-64
2021/07/31 08:33:13;;;;;;;5.50;5.03;;;;;;;;;;5091534;28;20040;-64
2021/07/31 08:35:39;;;;;;;6.10;5.45;;;;;;;;;;5091537;28;20040;-64
2021/07/31 08:38:04;;;;;;;5.45;4.95;;;;;;;;;;5091657;28;20039;-63
2021/07/31 08:40:32;;;;;;;4.65;4.25;;;;;;;;;;5091508;28;20032;-63
2021/07/31 08:42:58;;;;;;;6.90;5.60;;;;;;;;;;5091604;28;20118;-63
2021/07/31 08:45:24;;;;;;;5.35;4.78;;;;;;;;;;5089860;28;20587;-64
2021/07/31 08:47:50;;;;;;;5.20;4.80;;;;;;;;;;5091418;28;20032;-64
2021/07/31 09:00:32;;;;;;;5.40;5.00;;;;;;;;;;5095120;28;20549;-64
2021/07/31 09:06:33;;;;;;;8.70;5.00;;;;;;;;;;5095002;28;20126;-64
2021/07/31 09:12:33;;;;;;;5.72;4.68;;;;;;;;;;5094635;28;20059;-67
2021/07/31 09:18:34;;;;;;;3.45;3.15;;;;;;;;;;5094596;28;20089;-67
2021/07/31 09:24:35;;;;;;;3.22;2.92;;;;;;;;;;5094697;28;20031;-68
2021/07/31 09:45:50;;;;;;;4.95;4.53;;;;;;;;;;4991073;28;20057;-63
2021/07/31 10:02:48;;;;;;;4.75;4.35;;;;;;;;;;4972943;28;20029;-64
2021/07/31 10:29:25;;;;;;;4.85;4.45;;;;;;;;;;5073635;28;20036;-64
2021/07/31 10:35:30;;;;;;;5.35;4.50;;;;;;;;;;5073503;28;20031;-64
2021/07/31 10:37:58;;;;;;;5.67;5.17;;;;;;;;;;5070325;28;20098;-64
2021/07/31 10:40:26;;;;;;;5.18;4.78;;;;;;;;;;5068373;28;20035;-64
2021/07/31 10:42:51;;;;;;;5.32;4.60;;;;;;;;;;5068446;28;20464;-66
2021/07/31 10:45:17;;;;;;;4.78;4.38;;;;;;;;;;5069193;28;20039;-64
2021/07/31 10:47:44;;;;;;;5.18;4.75;;;;;;;;;;5069513;28;20049;-64
2021/07/31 10:50:21;;;;;;;5.82;5.25;;;;;;;;;;5069384;28;20040;-63
2021/07/31 10:52:50;;;;;;;5.10;4.70;;;;;;;;;;5069469;28;20765;-63
2021/07/31 10:55:17;;;;;;;6.40;5.20;;;;;;;;;;5060128;28;20082;-67
2021/07/31 10:57:52;;;;;;;4.85;4.47;;;;;;;;;;5069545;28;20547;-67
2021/07/31 11:00:34;;;;;;;5.38;4.97;;;;;;;;;;5069510;28;20040;-67
2021/07/31 11:03:04;;;;;;;5.18;4.78;;;;;;;;;;5069657;28;20044;-67
2021/07/31 11:06:00;;;;;;;5.57;5.10;;;;;;;;;;5068346;28;20044;-67
2021/07/31 11:08:27;;;;;;;5.43;4.85;;;;;;;;;;5067251;28;20041;-68
2021/07/31 11:10:54;;;;;;;5.70;5.13;;;;;;;;;;5055717;28;20039;-68
2021/07/31 11:13:20;;;;;;;5.05;4.55;;;;;;;;;;5057073;28;20037;-68
2021/07/31 11:26:09;;;;;;;5.18;4.78;;;;;;;;;;5056806;28;20432;-67
2021/07/31 11:35:49;;;;;;;6.70;4.90;;;;;;;;;;5061393;28;20596;-68
2021/07/31 11:41:57;;;;;;;6.28;4.75;;;;;;;;;;5076425;28;20495;-68
2021/07/31 11:47:58;;;;;;;6.05;5.40;;;;;;;;;;5083665;28;20471;-68
2021/07/31 11:50:25;;;;;;;7.13;5.35;;;;;;;;;;5080602;28;20044;-68
2021/07/31 11:52:52;;;;;;;5.55;5.05;;;;;;;;;;5075742;28;20067;-68
2021/07/31 11:55:24;;;;;;;5.93;5.07;;;;;;;;;;5060108;28;20491;-68
2021/07/31 11:57:53;;;;;;;6.82;5.78;;;;;;;;;;5080069;28;20106;-68
2021/07/31 12:03:54;;;;;;;5.85;5.35;;;;;;;;;;5076015;28;20023;-68
2021/07/31 12:09:58;;;;;;;5.18;4.78;;;;;;;;;;5075912;28;20586;-68
2021/07/31 12:15:59;;;;;;;5.57;5.00;;;;;;;;;;5075520;28;20074;-68
2021/07/31 12:22:07;;;;;;;5.85;4.70;;;;;;;;;;5075680;28;20081;-68
2021/07/31 12:28:12;;;;;;;5.43;4.97;;;;;;;;;;5075556;28;20035;-68
2021/07/31 12:30:42;;;;;;;5.72;5.22;;;;;;;;;;5073762;28;20032;-69
2021/07/31 12:33:08;;;;;;;5.20;4.72;;;;;;;;;;5078932;28;20094;-69
2021/07/31 12:35:57;;;;;;;5.45;4.88;;;;;;;;;;5080201;28;20036;-69
2021/07/31 12:38:24;;;;;;;5.32;4.90;;;;;;;;;;5071380;28;20112;-69
2021/07/31 12:40:57;;;;;;;5.45;4.93;;;;;;;;;;5090932;28;20071;-69
2021/07/31 12:43:25;;;;;;;5.60;5.00;;;;;;;;;;5091614;28;20028;-69
2021/07/31 12:45:51;;;;;;;6.82;5.35;;;;;;;;;;5090905;28;20016;-69
2021/07/31 12:48:17;;;;;;;5.18;4.78;;;;;;;;;;5089616;28;20127;-69
2021/07/31 12:50:42;;;;;;;5.88;5.38;;;;;;;;;;5089645;28;20206;-69
2021/07/31 12:53:09;;;;;;;6.30;4.93;;;;;;;;;;5091298;28;20119;-69
2021/07/31 12:55:34;;;;;;;5.22;4.78;;;;;;;;;;5091162;28;20186;-69
2021/07/31 12:58:00;;;;;;;5.78;5.15;;;;;;;;;;5091188;28;20051;-68
2021/07/31 13:00:26;;;;;;;5.65;5.13;;;;;;;;;;5091062;28;20036;-69
2021/07/31 13:02:53;;;;;;;4.90;4.50;;;;;;;;;;5072759;28;20403;-68
2021/07/31 13:05:18;;;;;;;5.75;5.22;;;;;;;;;;5089355;28;20484;-70
2021/07/31 13:07:53;;;;;;;5.60;5.10;;;;;;;;;;5089506;28;20042;-68
2021/07/31 13:10:33;;;;;;;5.00;4.60;;;;;;;;;;5052848;28;20475;-59
2021/07/31 13:13:06;;;;;;;4.88;4.47;;;;;;;;;;5070027;28;20616;-67
2021/07/31 13:15:35;;;;;;;6.00;5.28;;;;;;;;;;5071001;28;20123;-68
2021/07/31 13:18:38;;;;;;;5.55;5.03;;;;;;;;;;5076435;28;20492;-68
2021/07/31 13:24:40;;;;;;;8.05;5.43;;;;;;;;;;5094468;28;20102;-68
2021/07/31 13:27:11;;;;;;;5.82;5.22;;;;;;;;;;5089554;28;20055;-68
2021/07/31 13:29:42;;;;;;;14.13;6.45;;;;;;;;;;5070092;28;20044;-67
2021/07/31 13:32:14;;;;;;;5.75;4.85;;;;;;;;;;5088977;28;20024;-67
2021/07/31 13:34:41;;;;;;;8.95;5.18;;;;;;;;;;5070695;28;20365;-67
2021/07/31 13:37:14;;;;;;;7.18;5.18;;;;;;;;;;5089168;28;20039;-68
2021/07/31 13:39:43;;;;;;;5.28;4.78;;;;;;;;;;5090059;28;20039;-68
2021/07/31 13:42:09;;;;;;;5.45;4.95;;;;;;;;;;5090156;28;20039;-69
2021/07/31 13:44:35;;;;;;;5.22;4.82;;;;;;;;;;5090458;28;20051;-67
2021/07/31 13:47:02;;;;;;;5.40;5.00;;;;;;;;;;5090027;28;20129;-65
2021/07/31 13:49:27;;;;;;;5.10;4.68;;;;;;;;;;5090609;28;20050;-65
2021/07/31 13:51:53;;;;;;;5.72;5.22;;;;;;;;;;5090326;28;20044;-65
2021/07/31 13:54:19;;;;;;;6.35;5.20;;;;;;;;;;5090255;28;20042;-65
2021/07/31 13:56:44;;;;;;;5.32;4.93;;;;;;;;;;5090128;28;20116;-64
2021/07/31 13:59:12;;;;;;;6.22;5.32;;;;;;;;;;5088817;28;20064;-65
2021/07/31 14:01:37;;;;;;;4.95;4.55;;;;;;;;;;5069668;28;20513;-65
2021/07/31 14:04:03;;;;;;;5.32;4.82;;;;;;;;;;5071350;28;20063;-65
2021/07/31 14:06:29;;;;;;;5.28;4.88;;;;;;;;;;5054578;28;20028;-65
2021/07/31 14:08:54;;;;;;;5.93;5.13;;;;;;;;;;5089514;28;20038;-65
2021/07/31 14:11:20;;;;;;;9.18;5.35;;;;;;;;;;5071209;28;20472;-65
2021/07/31 14:13:45;;;;;;;5.82;5.32;;;;;;;;;;5089202;28;20032;-65
2021/07/31 14:16:11;;;;;;;6.15;5.35;;;;;;;;;;5071779;28;20040;-65
2021/07/31 14:18:36;;;;;;;6.03;5.43;;;;;;;;;;5089846;28;20549;-65
2021/07/31 14:21:08;;;;;;;6.10;5.50;;;;;;;;;;5089425;28;20032;-65
2021/07/31 14:23:35;;;;;;;5.28;4.88;;;;;;;;;;5089854;28;20028;-65
2021/07/31 14:26:00;;;;;;;5.85;5.35;;;;;;;;;;5071659;28;20028;-65
2021/07/31 14:28:26;;;;;;;7.78;5.15;;;;;;;;;;5089857;28;20042;-65
2021/07/31 14:30:51;;;;;;;5.18;4.80;;;;;;;;;;5089815;28;20361;-65
2021/07/31 14:33:17;;;;;;;5.55;5.05;;;;;;;;;;5071550;28;20067;-64
2021/07/31 14:35:42;;;;;;;5.65;5.15;;;;;;;;;;5089949;28;20027;-65
2021/07/31 14:38:08;;;;;;;5.45;4.97;;;;;;;;;;5070984;28;20476;-65
2021/07/31 14:40:34;;;;;;;6.80;5.00;;;;;;;;;;5088833;28;20036;-65
2021/07/31 14:42:59;;;;;;;8.38;6.82;;;;;;;;;;5073370;28;20032;-65
2021/07/31 14:45:25;;;;;;;5.60;5.07;;;;;;;;;;5093837;28;20024;-65
2021/07/31 14:47:51;;;;;;;6.38;5.57;;;;;;;;;;5092586;28;20079;-65
2021/07/31 14:50:18;;;;;;;5.70;5.20;;;;;;;;;;5092686;28;20480;-65
2021/07/31 14:52:44;;;;;;;6.18;5.68;;;;;;;;;;5093883;28;20062;-65
2021/07/31 14:55:11;;;;;;;5.50;5.00;;;;;;;;;;5093553;28;20147;-65
2021/07/31 14:57:37;;;;;;;5.07;4.57;;;;;;;;;;5092726;28;20066;-65
2021/07/31 15:00:03;;;;;;;4.25;3.92;;;;;;;;;;5092813;28;20460;-64
2021/07/31 15:02:29;;;;;;;5.47;4.32;;;;;;;;;;5093167;28;20032;-65
2021/07/31 15:04:54;;;;;;;5.32;4.80;;;;;;;;;;5075279;28;20051;-64
2021/07/31 15:07:20;;;;;;;4.82;4.43;;;;;;;;;;5093621;28;20688;-65
2021/07/31 15:09:45;;;;;;;4.95;4.53;;;;;;;;;;5093494;28;20028;-65
2021/07/31 15:12:11;;;;;;;6.72;5.10;;;;;;;;;;5093300;28;20043;-64
2021/07/31 15:14:37;;;;;;;5.47;5.03;;;;;;;;;;5091944;28;20028;-65
2021/07/31 15:17:03;;;;;;;6.15;5.45;;;;;;;;;;5091685;28;20032;-65
2021/07/31 15:19:29;;;;;;;5.97;5.47;;;;;;;;;;5091796;28;20123;-65
2021/07/31 15:21:55;;;;;;;5.47;5.07;;;;;;;;;;5093102;28;20036;-65
2021/07/31 15:24:21;;;;;;;5.75;5.35;;;;;;;;;;5092884;28;20421;-65
2021/07/31 15:26:46;;;;;;;4.88;4.57;;;;;;;;;;5074108;28;20032;-65
2021/07/31 15:29:14;;;;;;;6.10;5.60;;;;;;;;;;5092717;28;20038;-65
2021/07/31 15:31:39;;;;;;;6.00;5.47;;;;;;;;;;5074355;28;20044;-64
2021/07/31 15:34:05;;;;;;;5.18;4.78;;;;;;;;;;5093009;28;20089;-64
2021/07/31 15:36:31;;;;;;;4.82;4.43;;;;;;;;;;5091585;28;20055;-65
2021/07/31 15:38:56;;;;;;;5.78;5.28;;;;;;;;;;5092336;28;20071;-65
2021/07/31 15:41:22;;;;;;;4.90;4.53;;;;;;;;;;5057579;28;20126;-65
2021/07/31 15:43:47;;;;;;;5.18;4.78;;;;;;;;;;5092616;28;20042;-64
2021/07/31 15:46:13;;;;;;;18.95;5.82;;;;;;;;;;5074276;28;20040;-65
2021/07/31 15:48:38;;;;;;;5.32;4.93;;;;;;;;;;5073934;28;20504;-65
2021/07/31 15:51:07;;;;;;;5.18;4.78;;;;;;;;;;5092479;28;20086;-65
2021/07/31 15:57:07;;;;;;;4.97;4.57;;;;;;;;;;5096379;28;20030;-65
2021/07/31 16:03:09;;;;;;;5.43;5.03;;;;;;;;;;5096285;28;20035;-65
2021/07/31 16:09:09;;;;;;;5.10;4.70;;;;;;;;;;5096156;28;20098;-65
2021/07/31 16:15:10;;;;;;;4.72;4.32;;;;;;;;;;5096068;28;20113;-65
2021/07/31 16:21:17;;;;;;;4.85;4.45;;;;;;;;;;5095954;28;20018;-65
2021/07/31 16:27:19;;;;;;;4.63;4.32;;;;;;;;;;5092721;28;20027;-64
2021/07/31 16:29:45;;;;;;;5.78;5.20;;;;;;;;;;5091825;28;20044;-69
2021/07/31 16:32:11;;;;;;;8.27;4.93;;;;;;;;;;5092244;28;20028;-64
2021/07/31 16:34:37;;;;;;;5.88;5.22;;;;;;;;;;5073399;28;20036;-65
2021/07/31 16:37:03;;;;;;;8.50;5.63;;;;;;;;;;5091464;28;20024;-65
2021/07/31 16:39:30;;;;;;;5.43;4.88;;;;;;;;;;5056952;28;20125;-65
2021/07/31 16:41:57;;;;;;;5.95;5.32;;;;;;;;;;5091552;28;20127;-64
2021/07/31 16:44:23;;;;;;;5.93;4.93;;;;;;;;;;5091675;28;20040;-64
2021/07/31 16:46:49;;;;;;;5.43;4.88;;;;;;;;;;5071528;28;20054;-64
2021/07/31 16:49:14;;;;;;;5.00;4.57;;;;;;;;;;5091399;28;20100;-64
2021/07/31 16:51:41;;;;;;;5.85;5.35;;;;;;;;;;5072767;28;20044;-64
2021/07/31 16:54:07;;;;;;;7.93;6.93;;;;;;;;;;5089732;28;20050;-64
2021/07/31 16:56:32;;;;;;;7.00;5.30;;;;;;;;;;5090804;28;20023;-64
2021/07/31 16:58:58;;;;;;;5.38;4.95;;;;;;;;;;5090744;28;20541;-64
2021/07/31 17:04:58;;;;;;;5.15;4.75;;;;;;;;;;5094375;28;20030;-64
2021/07/31 17:10:59;;;;;;;7.20;4.78;;;;;;;;;;5095000;28;20495;-64
2021/07/31 17:17:00;;;;;;;5.53;5.00;;;;;;;;;;5094906;28;20117;-64
2021/07/31 17:23:01;;;;;;;5.25;4.85;;;;;;;;;;5094768;28;20031;-64
2021/07/31 17:29:02;;;;;;;5.53;5.03;;;;;;;;;;5094663;28;20031;-64
2021/07/31 17:35:03;;;;;;;5.57;5.07;;;;;;;;;;5094574;28;20094;-64
2021/07/31 17:41:03;;;;;;;5.43;4.85;;;;;;;;;;5094434;28;20019;-64
2021/07/31 17:50:53;;;;;;;5.82;5.32;;;;;;;;;;5093188;28;20511;-64
2021/07/31 17:56:40;;;;;;;6.60;5.68;;;;;;;;;;5093997;28;20030;-64
2021/07/31 18:02:41;;;;;;;6.30;5.75;;;;;;;;;;5094144;28;20038;-64
2021/07/31 18:08:41;;;;;;;6.28;5.78;;;;;;;;;;5094054;28;20537;-65
2021/07/31 18:14:42;;;;;;;7.15;6.45;;;;;;;;;;5094014;28;20058;-64
2021/07/31 18:20:42;;;;;;;6.68;6.03;;;;;;;;;;5093522;28;20105;-64
2021/07/31 18:26:42;;;;;;;8.57;7.65;;;;;;;;;;5093605;28;20031;-64
2021/07/31 18:32:42;;;;;;;7.43;6.80;;;;;;;;;;5093886;28;20121;-64
2021/07/31 18:38:43;;;;;;;9.57;8.00;;;;;;;;;;5093600;28;20125;-64
2021/07/31 18:44:49;;;;;;;12.25;10.27;;;;;;;;;;5093496;28;20054;-65
2021/07/31 18:50:32;;;;;;;19.65;14.00;;;;;;;;;;5093717;28;19958;-64
2021/07/31 18:59:48;;;;;;;15.35;10.40;;;;;;;;;;5093266;28;20059;-64
2021/07/31 19:05:49;;;;;;;11.15;8.43;;;;;;;;;;5093502;28;20047;-64
2021/07/31 19:15:24;;;;;;;11.25;7.88;;;;;;;;;;5093113;28;20551;-64
2021/07/31 19:21:25;;;;;;;13.60;10.38;;;;;;;;;;5093023;28;20027;-64
2021/07/31 19:27:26;;;;;;;34.83;20.10;;;;;;;;;;5093322;28;20086;-66
2021/07/31 19:33:27;;;;;;;16.70;12.98;;;;;;;;;;5096825;28;20030;-64
2021/07/31 19:39:28;;;;;;;19.45;14.05;;;;;;;;;;5096516;28;20469;-64
2021/07/31 19:45:29;;;;;;;18.17;14.50;;;;;;;;;;5096670;28;20074;-64
2021/07/31 19:51:30;;;;;;;17.02;13.20;;;;;;;;;;5096326;28;20471;-63
2021/07/31 19:57:08;;;;;;;15.35;10.57;;;;;;;;;;5092211;28;20060;-62
2021/07/31 19:59:35;;;;;;;13.55;10.63;;;;;;;;;;5073907;28;20047;-63
2021/07/31 20:02:01;;;;;;;12.80;10.27;;;;;;;;;;5092263;28;20032;-63
2021/07/31 20:04:28;;;;;;;12.35;10.70;;;;;;;;;;5092160;28;20040;-63
2021/07/31 20:06:53;;;;;;;14.70;11.15;;;;;;;;;;5092467;28;20059;-62
2021/07/31 20:09:19;;;;;;;19.17;12.77;;;;;;;;;;5092267;28;20488;-63
2021/07/31 20:11:44;;;;;;;17.45;11.05;;;;;;;;;;5091917;28;20032;-63
2021/07/31 20:14:10;;;;;;;9.60;8.45;;;;;;;;;;5091545;28;20777;-63